Time;durP1;ratioP1;P1;durP2;ratioP2;P2;SDS_P1;SDS_P2;PMS_P1;PMS_P2;Temp;Humidity;BMP_temperature;BMP_pressure;BME280_temperature;BME280_humidity;BME280_pressure;Samples;Min_cycle;Max_cycle;Signal;HPM_P1;HPM_P2
2022/11/02 00:06:57;;;;;;;5.27;2.70;;;;;11.10;99547.00;;;;16564152;28;20293;-50
2022/11/02 00:15:01;;;;;;;10.83;2.17;;;;;11.10;99555.00;;;;16543943;28;20635;-49
2022/11/02 00:23:06;;;;;;;4.73;2.37;;;;;11.10;99548.00;;;;16561208;28;20276;-49
2022/11/02 00:31:09;;;;;;;3.20;2.70;;;;;11.80;99546.00;;;;16564064;28;20219;-50
2022/11/02 00:39:12;;;;;;;7.03;3.03;;;;;11.20;99564.00;;;;16555189;28;20305;-50
2022/11/02 00:47:16;;;;;;;6.50;3.60;;;;;11.50;99568.00;;;;16552306;28;20719;-49
2022/11/02 00:55:19;;;;;;;5.20;3.37;;;;;11.50;99570.00;;;;16545643;28;20361;-49
2022/11/02 01:03:23;;;;;;;4.50;3.80;;;;;11.60;99572.00;;;;16547368;28;20211;-49
2022/11/02 01:11:26;;;;;;;10.33;2.93;;;;;11.10;99577.00;;;;16554512;28;20250;-50
2022/11/02 01:19:29;;;;;;;7.73;3.03;;;;;11.30;99570.00;;;;16545222;28;20274;-48
2022/11/02 01:27:32;;;;;;;3.63;2.90;;;;;11.20;99570.00;;;;16543851;28;20216;-50
2022/11/02 01:35:37;;;;;;;6.33;3.00;;;;;11.70;99557.00;;;;16550729;28;20331;-49
2022/11/02 01:43:43;;;;;;;5.80;3.10;;;;;11.60;99547.00;;;;16560795;28;20207;-50
2022/11/02 01:51:51;;;;;;;5.40;3.13;;;;;11.20;99553.00;;;;16558275;28;20273;-49
2022/11/02 01:59:57;;;;;;;7.30;3.70;;;;;12.10;99543.00;;;;16558178;28;20299;-49
2022/11/02 02:08:01;;;;;;;3.57;3.27;;;;;12.40;99524.00;;;;16577439;28;20703;-50
2022/11/02 02:16:11;;;;;;;9.50;6.30;;;;;12.40;99507.00;;;;16525169;28;20227;-51
2022/11/02 02:24:36;;;;;;;8.20;4.20;;;;;12.50;99494.00;;;;16549178;28;20286;-50
2022/11/02 02:32:45;;;;;;;6.40;5.30;;;;;12.80;99489.00;;;;16543941;28;20229;-50
2022/11/02 02:40:49;;;;;;;6.70;5.30;;;;;12.40;99494.00;;;;16526048;28;20219;-49
2022/11/02 02:48:56;;;;;;;6.83;5.80;;;;;12.10;99491.00;;;;16535091;28;20310;-50
2022/11/02 02:57:03;;;;;;;9.70;5.67;;;;;11.60;99505.00;;;;16530293;28;20223;-50
2022/11/02 03:05:25;;;;;;;8.77;5.87;;;;;12.00;99489.00;;;;16537675;28;20206;-50
2022/11/02 03:13:40;;;;;;;6.17;5.57;;;;;11.00;99490.00;;;;16535818;28;20230;-49
2022/11/02 03:21:45;;;;;;;7.93;4.30;;;;;10.80;99495.00;;;;16523600;28;20269;-49
2022/11/02 03:29:53;;;;;;;6.83;4.30;;;;;10.60;99499.00;;;;16540759;28;20360;-49
2022/11/02 03:38:02;;;;;;;7.33;4.67;;;;;11.60;99490.00;;;;16551548;28;20227;-48
2022/11/02 03:46:08;;;;;;;6.00;4.67;;;;;11.60;99510.00;;;;16563037;28;20721;-48
2022/11/02 03:54:15;;;;;;;7.70;4.50;;;;;12.10;99513.00;;;;16585568;28;20312;-50
2022/11/02 04:02:19;;;;;;;5.43;4.93;;;;;12.10;99505.00;;;;16554466;28;20257;-48
2022/11/02 04:10:23;;;;;;;7.97;5.53;;;;;11.20;99512.00;;;;16562739;28;20215;-48
2022/11/02 04:26:52;;;;;;;6.03;4.83;;;;;12.20;99532.00;;;;16475829;28;20226;-49
2022/11/02 04:34:55;;;;;;;6.20;4.37;;;;;11.70;99529.00;;;;16557466;28;20220;-49
2022/11/02 04:42:59;;;;;;;6.10;4.43;;;;;11.90;99535.00;;;;16563852;28;20367;-49
2022/11/02 04:51:02;;;;;;;8.67;6.00;;;;;12.30;99537.00;;;;16547571;28;20216;-49
2022/11/02 04:59:05;;;;;;;6.40;5.20;;;;;11.60;99536.00;;;;16554280;28;20218;-49
2022/11/02 05:07:11;;;;;;;7.30;4.67;;;;;11.10;99552.00;;;;16548201;28;20227;-49
2022/11/02 05:15:16;;;;;;;6.23;4.70;;;;;11.70;99547.00;;;;16554448;28;20223;-49
2022/11/02 05:23:19;;;;;;;9.40;7.00;;;;;11.90;99561.00;;;;16532043;28;20211;-49
2022/11/02 05:31:23;;;;;;;6.67;4.63;;;;;11.30;99562.00;;;;16547090;28;20605;-49
2022/11/02 05:39:26;;;;;;;6.70;4.60;;;;;11.10;99578.00;;;;16565494;28;20227;-49
2022/11/02 05:47:30;;;;;;;9.10;5.90;;;;;11.30;99583.00;;;;16541040;28;20216;-48
2022/11/02 05:55:34;;;;;;;12.10;8.70;;;;;11.50;99579.00;;;;16557837;28;20375;-49
2022/11/02 06:03:38;;;;;;;9.63;7.00;;;;;11.70;99576.00;;;;16571102;28;20242;-49
2022/11/02 06:11:40;;;;;;;8.50;7.27;;;;;11.80;99579.00;;;;16549456;28;20224;-49
2022/11/02 06:19:44;;;;;;;13.83;8.60;;;;;14.00;99571.00;;;;16539983;28;20360;-48
2022/11/02 06:27:55;;;;;;;9.37;6.40;;;;;15.30;99570.00;;;;16549361;28;20219;-49
2022/11/02 06:36:00;;;;;;;10.77;7.63;;;;;15.00;99587.00;;;;16558202;28;20231;-49
2022/11/02 06:44:02;;;;;;;8.00;6.53;;;;;15.90;99591.00;;;;16565511;28;20337;-48
2022/11/02 06:52:06;;;;;;;4.67;4.13;;;;;14.20;99607.00;;;;16562793;28;20689;-49
2022/11/02 07:00:11;;;;;;;7.73;5.37;;;;;12.90;99632.00;;;;16555426;28;20845;-49
2022/11/02 07:08:15;;;;;;;8.20;6.20;;;;;14.90;99640.00;;;;16560593;28;20211;-48
2022/11/02 07:16:18;;;;;;;9.77;6.30;;;;;16.10;99651.00;;;;16534885;28;20222;-48
2022/11/02 07:24:21;;;;;;;8.60;6.60;;;;;15.60;99655.00;;;;16561443;28;20227;-49
2022/11/02 07:32:24;;;;;;;8.67;5.67;;;;;15.90;99651.00;;;;16562337;28;20374;-50
2022/11/02 07:40:28;;;;;;;10.77;5.80;;;;;16.60;99656.00;;;;16575068;28;20230;-49
2022/11/02 07:48:31;;;;;;;10.83;6.37;;;;;16.30;99666.00;;;;16574116;28;20358;-48
2022/11/02 07:56:35;;;;;;;7.60;5.23;;;;;16.30;99674.00;;;;16567620;28;20310;-48
2022/11/02 08:04:37;;;;;;;12.63;4.97;;;;;16.30;99679.00;;;;16569899;28;20329;-50
2022/11/02 08:12:41;;;;;;;11.23;5.17;;;;;17.00;99672.00;;;;16556946;28;20346;-47
2022/11/02 08:20:44;;;;;;;9.83;5.50;;;;;17.20;99674.00;;;;16543642;28;20219;-49
2022/11/02 08:28:48;;;;;;;8.10;4.60;;;;;17.80;99667.00;;;;16557887;28;20238;-48
2022/11/02 08:36:50;;;;;;;9.20;4.87;;;;;18.30;99676.00;;;;16562279;28;20235;-48
2022/11/02 08:44:54;;;;;;;13.20;5.67;;;;;18.40;99670.00;;;;16571008;28;20278;-49
2022/11/02 08:52:57;;;;;;;11.03;4.97;;;;;18.50;99679.00;;;;16566286;28;20224;-49
2022/11/02 09:01:00;;;;;;;6.90;5.30;;;;;18.90;99683.00;;;;16564613;28;20852;-49
2022/11/02 09:09:03;;;;;;;8.17;5.00;;;;;19.30;99680.00;;;;16561206;28;20294;-49
2022/11/02 09:17:07;;;;;;;8.30;4.33;;;;;19.50;99676.00;;;;16551942;28;20302;-49
2022/11/02 09:25:10;;;;;;;6.97;4.90;;;;;19.90;99677.00;;;;16561503;28;20270;-49
2022/11/02 09:33:13;;;;;;;10.20;5.67;;;;;19.30;99680.00;;;;16556187;28;20653;-49
2022/11/02 09:41:21;;;;;;;4.43;3.20;;;;;18.60;99688.00;;;;16556990;28;20306;-49
2022/11/02 09:49:25;;;;;;;4.30;1.83;;;;;17.70;99684.00;;;;16563200;28;20330;-48
2022/11/02 09:57:29;;;;;;;3.70;1.97;;;;;17.10;99706.00;;;;16562302;28;20233;-49
2022/11/02 10:05:40;;;;;;;2.50;1.60;;;;;17.20;99714.00;;;;16561189;28;20233;-48
2022/11/02 10:13:46;;;;;;;8.80;2.80;;;;;17.40;99706.00;;;;16554160;28;20286;-48
2022/11/02 10:21:53;;;;;;;4.70;1.80;;;;;17.30;99706.00;;;;16535373;28;20227;-49
2022/11/02 10:29:59;;;;;;;4.70;1.60;;;;;17.30;99704.00;;;;16555159;28;20692;-49
2022/11/02 10:38:13;;;;;;;5.30;1.60;;;;;17.10;99705.00;;;;16552005;28;20223;-49
2022/11/02 10:46:27;;;;;;;4.53;1.90;;;;;17.30;99703.00;;;;16563262;28;20219;-45
2022/11/02 10:54:31;;;;;;;5.83;2.20;;;;;17.40;99694.00;;;;16554687;28;20270;-48
2022/11/02 11:02:33;;;;;;;7.17;2.47;;;;;18.00;99699.00;;;;16552925;28;20237;-48
2022/11/02 11:10:39;;;;;;;4.30;1.63;;;;;17.40;99701.00;;;;16559676;28;20215;-49
2022/11/02 11:18:41;;;;;;;4.23;1.77;;;;;17.70;99704.00;;;;16539714;28;20234;-48
2022/11/02 11:26:45;;;;;;;5.57;2.17;;;;;17.50;99696.00;;;;16552567;28;20219;-48
2022/11/02 11:34:55;;;;;;;6.07;1.97;;;;;17.10;99694.00;;;;16540782;28;20212;-48
2022/11/02 11:42:59;;;;;;;7.57;2.17;;;;;17.40;99692.00;;;;16555524;28;20241;-49
2022/11/02 11:51:02;;;;;;;3.40;1.50;;;;;17.40;99680.00;;;;16561669;28;20575;-48
2022/11/02 11:59:24;;;;;;;5.13;1.63;;;;;18.30;99671.00;;;;16560900;28;20280;-49
2022/11/02 12:07:40;;;;;;;2.40;1.43;;;;;18.50;99638.00;;;;16564081;28;20302;-47
2022/11/02 12:15:53;;;;;;;4.57;1.40;;;;;20.00;99627.00;;;;16593769;22;20272;-70
2022/11/02 12:24:17;;;;;;;5.50;1.50;;;;;20.50;99618.00;;;;16610081;28;20223;-70
2022/11/02 12:32:35;;;;;;;4.93;1.47;;;;;20.40;99605.00;;;;16580191;22;20356;-82
2022/11/02 12:40:46;;;;;;;6.03;1.80;;;;;19.00;99610.00;;;;16547643;28;20612;-82
2022/11/02 12:49:03;;;;;;;3.93;1.50;;;;;18.50;99616.00;;;;16576881;28;20209;-81
2022/11/02 12:57:07;;;;;;;3.17;1.97;;;;;18.40;99609.00;;;;16577420;28;20319;-81
2022/11/02 13:05:16;;;;;;;4.73;1.77;;;;;19.30;99603.00;;;;16569373;28;20314;-82
2022/11/02 13:13:23;;;;;;;7.87;1.93;;;;;19.80;99603.00;;;;16560503;28;20237;-82
2022/11/02 13:21:33;;;;;;;3.60;1.73;;;;;20.20;99582.00;;;;16558559;28;20658;-83
2022/11/02 13:29:40;;;;;;;5.33;1.67;;;;;20.30;99586.00;;;;16559174;28;20207;-82
2022/11/02 13:37:46;;;;;;;6.37;2.03;;;;;19.80;99575.00;;;;16566770;28;20223;-81
2022/11/02 13:46:11;;;;;;;7.90;3.10;;;;;20.90;99563.00;;;;16552790;28;20305;-82
2022/11/02 13:54:18;;;;;;;6.67;3.00;;;;;19.80;99580.00;;;;16558913;28;20354;-81
2022/11/02 14:02:22;;;;;;;7.30;3.27;;;;;19.70;99577.00;;;;16577825;28;20473;-82
2022/11/02 14:10:26;;;;;;;6.57;2.97;;;;;19.20;99586.00;;;;16584541;28;20227;-81
2022/11/02 14:18:30;;;;;;;9.10;4.90;;;;;18.90;99579.00;;;;16551790;28;20314;-81
2022/11/02 14:26:54;;;;;;;11.57;5.67;;;;;18.80;99576.00;;;;16563984;28;20227;-80
2022/11/02 14:35:08;;;;;;;5.00;2.17;;;;;18.80;99585.00;;;;16564384;28;20246;-79
2022/11/02 14:43:42;;;;;;;8.27;2.33;;;;;18.70;99583.00;;;;16546625;28;20668;-80
2022/11/02 14:51:45;;;;;;;6.90;2.63;;;;;20.10;99579.00;;;;16558333;28;20227;-80
2022/11/02 14:59:52;;;;;;;7.00;2.33;;;;;20.10;99580.00;;;;16591521;28;20219;-80
2022/11/02 15:07:58;;;;;;;7.50;2.57;;;;;18.90;99584.00;;;;16573283;28;20226;-80
2022/11/02 15:16:27;;;;;;;8.03;4.97;;;;;20.00;99568.00;;;;16550008;28;20238;-81
2022/11/02 15:24:31;;;;;;;9.53;3.30;;;;;19.00;99574.00;;;;16562279;28;20290;-80
2022/11/02 15:32:40;;;;;;;6.63;2.93;;;;;18.30;99568.00;;;;16554305;28;20231;-81
2022/11/02 15:40:50;;;;;;;10.90;4.33;;;;;18.10;99562.00;;;;16557240;28;20308;-81
2022/11/02 15:49:00;;;;;;;7.37;3.10;;;;;16.00;99571.00;;;;16557568;28;20307;-81
2022/11/02 15:57:11;;;;;;;13.23;6.50;;;;;15.80;99581.00;;;;16575439;28;20334;-81
2022/11/02 16:05:22;;;;;;;7.07;3.53;;;;;14.90;99580.00;;;;16575334;28;20250;-81
2022/11/02 16:13:25;;;;;;;8.80;3.40;;;;;14.90;99590.00;;;;16557426;28;20231;-80
2022/11/02 16:21:29;;;;;;;9.93;3.73;;;;;14.10;99593.00;;;;16569741;28;20413;-81
2022/11/02 16:29:32;;;;;;;10.67;3.50;;;;;14.00;99593.00;;;;16575767;28;20274;-81
2022/11/02 16:37:36;;;;;;;8.37;4.80;;;;;13.80;99584.00;;;;16566693;28;20318;-80
2022/11/02 16:45:39;;;;;;;17.10;5.80;;;;;13.40;99585.00;;;;16579650;28;20231;-78
2022/11/02 16:53:43;;;;;;;10.77;5.40;;;;;13.10;99587.00;;;;16573291;28;20309;-82
2022/11/02 17:01:46;;;;;;;7.70;4.10;;;;;12.70;99585.00;;;;16574611;28;20234;-81
2022/11/02 17:09:53;;;;;;;11.50;6.13;;;;;12.50;99579.00;;;;16577924;28;20331;-79
2022/11/02 17:18:15;;;;;;;16.43;7.17;;;;;12.30;99573.00;;;;16571325;28;20670;-80
2022/11/02 17:26:27;;;;;;;9.60;6.13;;;;;12.10;99585.00;;;;16566830;28;20603;-80
2022/11/02 17:34:30;;;;;;;17.63;7.90;;;;;12.20;99570.00;;;;16570507;28;20282;-80
2022/11/02 17:50:55;;;;;;;12.70;6.50;;;;;11.90;99551.00;;;;16595063;28;20199;-80
2022/11/02 17:58:59;;;;;;;14.37;8.00;;;;;11.90;99551.00;;;;16561600;28;20277;-81
2022/11/02 18:07:01;;;;;;;15.50;7.37;;;;;11.70;99544.00;;;;16573213;28;20250;-79
2022/11/02 18:15:05;;;;;;;14.13;6.37;;;;;12.00;99533.00;;;;16572677;28;20229;-80
2022/11/02 18:23:09;;;;;;;14.13;6.83;;;;;11.80;99526.00;;;;16574208;28;20633;-79
2022/11/02 18:31:13;;;;;;;9.57;6.30;;;;;12.10;99533.00;;;;16574521;28;20225;-79
2022/11/02 18:39:16;;;;;;;16.37;5.00;;;;;12.00;99525.00;;;;16560786;28;20275;-81
2022/11/02 18:47:20;;;;;;;13.23;6.00;;;;;11.60;99529.00;;;;16539555;28;20221;-80
2022/11/02 18:55:22;;;;;;;9.53;5.37;;;;;12.30;99520.00;;;;16572888;28;20231;-80
2022/11/02 19:03:26;;;;;;;9.80;4.60;;;;;11.50;99515.00;;;;16576735;28;20306;-80
2022/11/02 19:11:29;;;;;;;10.37;4.90;;;;;11.10;99514.00;;;;16560568;28;20764;-81
2022/11/02 19:19:33;;;;;;;14.10;5.20;;;;;11.00;99509.00;;;;16593228;28;20230;-80
2022/11/02 19:27:35;;;;;;;11.90;7.00;;;;;11.40;99515.00;;;;16585754;28;20237;-79
2022/11/02 19:35:39;;;;;;;9.43;6.70;;;;;11.00;99503.00;;;;16562789;28;20638;-80
2022/11/02 19:43:42;;;;;;;23.13;13.13;;;;;11.10;99518.00;;;;16571861;28;20234;-80
2022/11/02 19:51:46;;;;;;;11.23;7.07;;;;;11.20;99517.00;;;;16573704;28;20655;-80
2022/11/02 19:59:49;;;;;;;12.00;7.20;;;;;11.00;99518.00;;;;16584128;28;20334;-81
2022/11/02 20:07:53;;;;;;;13.70;7.40;;;;;11.20;99511.00;;;;16608049;28;20556;-81
2022/11/02 20:15:56;;;;;;;13.67;8.87;;;;;11.00;99509.00;;;;16552640;28;20315;-81
2022/11/02 20:24:00;;;;;;;11.40;7.07;;;;;11.10;99497.00;;;;16567040;28;20250;-81
2022/11/02 20:32:05;;;;;;;8.90;8.00;;;;;11.30;99485.00;;;;16566586;28;20309;-80
2022/11/02 20:40:10;;;;;;;13.63;7.30;;;;;11.30;99493.00;;;;16567274;28;20934;-81
2022/11/02 20:48:12;;;;;;;13.27;7.80;;;;;11.30;99485.00;;;;16548538;28;20274;-80
2022/11/02 20:56:17;;;;;;;13.93;7.70;;;;;10.80;99483.00;;;;16587194;28;20236;-79
2022/11/02 21:04:19;;;;;;;11.50;6.97;;;;;10.50;99485.00;;;;16568573;28;20329;-79
2022/11/02 21:20:43;;;;;;;14.70;8.90;;;;;10.70;99479.00;;;;16558215;28;20247;-80
2022/11/02 21:28:47;;;;;;;11.17;8.00;;;;;10.50;99485.00;;;;16544797;28;20242;-79
2022/11/02 21:36:50;;;;;;;11.13;7.17;;;;;10.90;99483.00;;;;16567776;28;20251;-80
2022/11/02 21:44:53;;;;;;;10.30;9.30;;;;;10.90;99458.00;;;;16574323;28;20246;-79
2022/11/02 21:52:56;;;;;;;19.00;9.43;;;;;10.50;99446.00;;;;16590318;28;20246;-79
2022/11/02 22:09:21;;;;;;;13.37;7.93;;;;;10.20;99434.00;;;;16588285;28;20373;-79
2022/11/02 22:17:25;;;;;;;14.87;9.10;;;;;10.20;99428.00;;;;16580678;28;20324;-80
2022/11/02 22:25:28;;;;;;;10.17;8.03;;;;;10.30;99443.00;;;;16570108;28;20305;-80
2022/11/02 22:33:31;;;;;;;20.00;8.30;;;;;10.50;99435.00;;;;16583826;28;20860;-79
2022/11/02 22:41:36;;;;;;;10.80;7.37;;;;;10.10;99430.00;;;;16559903;28;20228;-79
2022/11/02 22:49:39;;;;;;;11.80;8.77;;;;;10.50;99433.00;;;;16565135;28;20207;-78
2022/11/02 22:57:42;;;;;;;10.00;8.87;;;;;10.30;99411.00;;;;16582990;28;20634;-80
2022/11/02 23:05:46;;;;;;;11.43;9.83;;;;;10.60;99405.00;;;;16562988;28;20649;-80
2022/11/02 23:13:50;;;;;;;13.83;8.20;;;;;11.10;99402.00;;;;16572375;28;20219;-80
2022/11/02 23:46:51;;;;;;;11.30;7.93;;;;;10.30;99393.00;;;;16549380;28;20219;-81
